sensor_id;sensor_type;location;lat;lon;timestamp;temperature;humidity
30379;DHT22;17168;49.164;9.060;2023-11-19T00:02:06;14.70;79.30
30379;DHT22;17168;49.164;9.060;2023-11-19T00:04:40;14.70;78.90
30379;DHT22;17168;49.164;9.060;2023-11-19T00:07:12;14.70;79.00
30379;DHT22;17168;49.164;9.060;2023-11-19T00:09:46;14.70;79.00
30379;DHT22;17168;49.164;9.060;2023-11-19T00:12:18;14.70;79.20
30379;DHT22;17168;49.164;9.060;2023-11-19T00:14:50;14.80;79.40
30379;DHT22;17168;49.164;9.060;2023-11-19T00:17:25;14.80;79.50
30379;DHT22;17168;49.164;9.060;2023-11-19T00:19:59;14.80;79.60
30379;DHT22;17168;49.164;9.060;2023-11-19T00:22:31;14.80;79.70
30379;DHT22;17168;49.164;9.060;2023-11-19T00:25:05;14.90;79.80
30379;DHT22;17168;49.164;9.060;2023-11-19T00:27:37;14.90;79.80
30379;DHT22;17168;49.164;9.060;2023-11-19T00:30:10;14.90;79.70
30379;DHT22;17168;49.164;9.060;2023-11-19T00:32:45;14.70;79.30
30379;DHT22;17168;49.164;9.060;2023-11-19T00:35:18;14.40;79.60
30379;DHT22;17168;49.164;9.060;2023-11-19T00:37:50;14.00;80.10
30379;DHT22;17168;49.164;9.060;2023-11-19T00:40:23;13.60;80.80
30379;DHT22;17168;49.164;9.060;2023-11-19T00:42:55;13.20;81.60
30379;DHT22;17168;49.164;9.060;2023-11-19T00:45:30;12.90;82.40
30379;DHT22;17168;49.164;9.060;2023-11-19T00:48:05;12.60;83.20
30379;DHT22;17168;49.164;9.060;2023-11-19T00:50:37;12.30;84.10
30379;DHT22;17168;49.164;9.060;2023-11-19T00:53:13;12.10;84.80
30379;DHT22;17168;49.164;9.060;2023-11-19T00:55:45;11.90;85.60
30379;DHT22;17168;49.164;9.060;2023-11-19T00:58:18;11.70;86.40
30379;DHT22;17168;49.164;9.060;2023-11-19T01:00:50;11.50;87.40
30379;DHT22;17168;49.164;9.060;2023-11-19T01:03:25;11.40;88.40
30379;DHT22;17168;49.164;9.060;2023-11-19T01:05:58;11.20;89.50
30379;DHT22;17168;49.164;9.060;2023-11-19T01:08:31;11.10;90.30
30379;DHT22;17168;49.164;9.060;2023-11-19T01:11:04;11.00;90.80
30379;DHT22;17168;49.164;9.060;2023-11-19T01:13:36;10.80;91.40
30379;DHT22;17168;49.164;9.060;2023-11-19T01:16:08;10.70;92.20
30379;DHT22;17168;49.164;9.060;2023-11-19T01:18:44;10.60;93.00
30379;DHT22;17168;49.164;9.060;2023-11-19T01:21:16;10.50;93.80
30379;DHT22;17168;49.164;9.060;2023-11-19T01:23:49;10.40;94.70
30379;DHT22;17168;49.164;9.060;2023-11-19T01:26:21;10.30;95.60
30379;DHT22;17168;49.164;9.060;2023-11-19T01:28:53;10.20;96.50
30379;DHT22;17168;49.164;9.060;2023-11-19T01:31:25;10.20;97.40
30379;DHT22;17168;49.164;9.060;2023-11-19T01:34:00;10.20;98.30
30379;DHT22;17168;49.164;9.060;2023-11-19T01:36:33;10.10;99.10
30379;DHT22;17168;49.164;9.060;2023-11-19T01:39:05;10.00;99.70
30379;DHT22;17168;49.164;9.060;2023-11-19T01:41:38;10.00;99.90
30379;DHT22;17168;49.164;9.060;2023-11-19T01:44:13;10.00;99.90
30379;DHT22;17168;49.164;9.060;2023-11-19T01:46:46;10.00;99.90
30379;DHT22;17168;49.164;9.060;2023-11-19T01:49:25;9.90;99.90
30379;DHT22;17168;49.164;9.060;2023-11-19T01:51:57;9.90;99.90
30379;DHT22;17168;49.164;9.060;2023-11-19T01:54:30;9.90;99.90
30379;DHT22;17168;49.164;9.060;2023-11-19T01:57:02;9.90;99.90
30379;DHT22;17168;49.164;9.060;2023-11-19T01:59:35;9.90;99.90
30379;DHT22;17168;49.164;9.060;2023-11-19T02:02:07;9.90;99.90
30379;DHT22;17168;49.164;9.060;2023-11-19T02:04:42;9.80;99.90
30379;DHT22;17168;49.164;9.060;2023-11-19T02:07:15;9.90;99.90
30379;DHT22;17168;49.164;9.060;2023-11-19T02:09:49;9.80;99.90
30379;DHT22;17168;49.164;9.060;2023-11-19T02:12:22;9.90;99.90
30379;DHT22;17168;49.164;9.060;2023-11-19T02:14:54;9.80;99.90
30379;DHT22;17168;49.164;9.060;2023-11-19T02:17:27;9.80;99.90
30379;DHT22;17168;49.164;9.060;2023-11-19T02:20:02;9.80;99.90
30379;DHT22;17168;49.164;9.060;2023-11-19T02:22:35;9.80;99.90
30379;DHT22;17168;49.164;9.060;2023-11-19T02:25:11;9.80;99.90
30379;DHT22;17168;49.164;9.060;2023-11-19T02:27:53;9.80;99.90
30379;DHT22;17168;49.164;9.060;2023-11-19T02:30:28;9.80;99.90
30379;DHT22;17168;49.164;9.060;2023-11-19T02:33:01;9.80;99.90
30379;DHT22;17168;49.164;9.060;2023-11-19T02:35:37;9.70;99.90
30379;DHT22;17168;49.164;9.060;2023-11-19T02:38:10;9.70;99.90
30379;DHT22;17168;49.164;9.060;2023-11-19T02:40:43;9.70;99.90
30379;DHT22;17168;49.164;9.060;2023-11-19T02:43:17;9.70;99.90
30379;DHT22;17168;49.164;9.060;2023-11-19T02:45:50;9.70;99.90
30379;DHT22;17168;49.164;9.060;2023-11-19T02:48:22;9.70;99.90
30379;DHT22;17168;49.164;9.060;2023-11-19T02:50:55;9.70;99.90
30379;DHT22;17168;49.164;9.060;2023-11-19T02:53:30;9.70;99.90
30379;DHT22;17168;49.164;9.060;2023-11-19T02:56:04;9.70;99.90
30379;DHT22;17168;49.164;9.060;2023-11-19T02:58:55;9.70;99.90
30379;DHT22;17168;49.164;9.060;2023-11-19T03:01:27;9.80;99.90
30379;DHT22;17168;49.164;9.060;2023-11-19T03:04:03;9.70;99.90
30379;DHT22;17168;49.164;9.060;2023-11-19T03:06:36;9.80;99.90
30379;DHT22;17168;49.164;9.060;2023-11-19T03:09:08;9.70;99.90
30379;DHT22;17168;49.164;9.060;2023-11-19T03:11:42;9.70;99.90
30379;DHT22;17168;49.164;9.060;2023-11-19T03:14:17;9.70;99.90
30379;DHT22;17168;49.164;9.060;2023-11-19T03:16:50;9.70;99.90
30379;DHT22;17168;49.164;9.060;2023-11-19T03:19:23;9.70;99.90
30379;DHT22;17168;49.164;9.060;2023-11-19T03:21:57;9.70;99.90
30379;DHT22;17168;49.164;9.060;2023-11-19T03:24:29;9.70;99.90
30379;DHT22;17168;49.164;9.060;2023-11-19T03:27:01;9.70;99.90
30379;DHT22;17168;49.164;9.060;2023-11-19T03:29:36;9.70;99.90
30379;DHT22;17168;49.164;9.060;2023-11-19T03:32:08;9.70;99.90
30379;DHT22;17168;49.164;9.060;2023-11-19T03:34:41;9.70;99.90
30379;DHT22;17168;49.164;9.060;2023-11-19T03:37:13;9.70;99.90
30379;DHT22;17168;49.164;9.060;2023-11-19T03:39:49;9.70;99.90
30379;DHT22;17168;49.164;9.060;2023-11-19T03:42:21;9.70;99.90
30379;DHT22;17168;49.164;9.060;2023-11-19T03:44:57;9.70;99.90
30379;DHT22;17168;49.164;9.060;2023-11-19T03:47:29;9.70;99.90
30379;DHT22;17168;49.164;9.060;2023-11-19T03:50:03;9.70;99.90
30379;DHT22;17168;49.164;9.060;2023-11-19T03:52:35;9.70;99.90
30379;DHT22;17168;49.164;9.060;2023-11-19T03:55:10;9.70;99.90
30379;DHT22;17168;49.164;9.060;2023-11-19T03:57:44;9.80;99.90
30379;DHT22;17168;49.164;9.060;2023-11-19T04:00:20;9.80;99.90
30379;DHT22;17168;49.164;9.060;2023-11-19T04:02:53;9.80;99.90
30379;DHT22;17168;49.164;9.060;2023-11-19T04:05:25;9.80;99.90
30379;DHT22;17168;49.164;9.060;2023-11-19T04:07:57;9.80;99.90
30379;DHT22;17168;49.164;9.060;2023-11-19T04:10:29;9.90;99.90
30379;DHT22;17168;49.164;9.060;2023-11-19T04:13:02;9.90;99.90
30379;DHT22;17168;49.164;9.060;2023-11-19T04:15:37;9.90;99.90
30379;DHT22;17168;49.164;9.060;2023-11-19T04:18:09;10.00;99.90
30379;DHT22;17168;49.164;9.060;2023-11-19T04:20:41;10.10;99.90
30379;DHT22;17168;49.164;9.060;2023-11-19T04:23:14;10.30;99.90
30379;DHT22;17168;49.164;9.060;2023-11-19T04:25:46;10.40;99.90
30379;DHT22;17168;49.164;9.060;2023-11-19T04:28:18;10.60;99.90
30379;DHT22;17168;49.164;9.060;2023-11-19T04:30:53;10.70;99.90
30379;DHT22;17168;49.164;9.060;2023-11-19T04:33:26;10.90;99.90
30379;DHT22;17168;49.164;9.060;2023-11-19T04:35:58;11.10;99.90
30379;DHT22;17168;49.164;9.060;2023-11-19T04:38:30;11.20;99.90
30379;DHT22;17168;49.164;9.060;2023-11-19T04:41:03;11.30;99.90
30379;DHT22;17168;49.164;9.060;2023-11-19T04:43:37;11.40;99.90
30379;DHT22;17168;49.164;9.060;2023-11-19T04:46:12;11.60;99.90
30379;DHT22;17168;49.164;9.060;2023-11-19T04:48:45;11.60;99.90
30379;DHT22;17168;49.164;9.060;2023-11-19T04:51:17;11.70;99.90
30379;DHT22;17168;49.164;9.060;2023-11-19T04:53:49;11.80;99.90
30379;DHT22;17168;49.164;9.060;2023-11-19T04:56:21;11.90;99.90
30379;DHT22;17168;49.164;9.060;2023-11-19T04:58:55;12.00;99.90
30379;DHT22;17168;49.164;9.060;2023-11-19T05:01:29;12.10;99.90
30379;DHT22;17168;49.164;9.060;2023-11-19T05:04:02;12.10;99.90
30379;DHT22;17168;49.164;9.060;2023-11-19T05:06:35;12.20;99.90
30379;DHT22;17168;49.164;9.060;2023-11-19T05:09:07;12.30;99.90
30379;DHT22;17168;49.164;9.060;2023-11-19T05:11:39;12.30;99.90
30379;DHT22;17168;49.164;9.060;2023-11-19T05:14:15;12.30;99.90
30379;DHT22;17168;49.164;9.060;2023-11-19T05:16:51;12.40;99.90
30379;DHT22;17168;49.164;9.060;2023-11-19T05:19:23;12.40;99.90
30379;DHT22;17168;49.164;9.060;2023-11-19T05:21:55;12.40;99.90
30379;DHT22;17168;49.164;9.060;2023-11-19T05:24:28;12.50;99.90
30379;DHT22;17168;49.164;9.060;2023-11-19T05:27:01;12.50;99.90
30379;DHT22;17168;49.164;9.060;2023-11-19T05:29:34;12.60;99.90
30379;DHT22;17168;49.164;9.060;2023-11-19T05:32:09;12.60;99.90
30379;DHT22;17168;49.164;9.060;2023-11-19T05:34:41;12.60;99.90
30379;DHT22;17168;49.164;9.060;2023-11-19T05:37:16;12.70;99.90
30379;DHT22;17168;49.164;9.060;2023-11-19T05:39:48;12.60;99.90
30379;DHT22;17168;49.164;9.060;2023-11-19T05:42:21;12.70;99.90
30379;DHT22;17168;49.164;9.060;2023-11-19T05:44:53;12.70;99.90
30379;DHT22;17168;49.164;9.060;2023-11-19T05:47:28;12.80;99.90
30379;DHT22;17168;49.164;9.060;2023-11-19T05:50:00;12.80;99.90
30379;DHT22;17168;49.164;9.060;2023-11-19T05:52:32;12.80;99.90
30379;DHT22;17168;49.164;9.060;2023-11-19T05:55:06;12.80;99.90
30379;DHT22;17168;49.164;9.060;2023-11-19T05:57:42;12.80;99.90
30379;DHT22;17168;49.164;9.060;2023-11-19T06:00:18;12.90;99.90
30379;DHT22;17168;49.164;9.060;2023-11-19T06:02:53;12.90;99.90
30379;DHT22;17168;49.164;9.060;2023-11-19T06:05:25;12.90;99.90
30379;DHT22;17168;49.164;9.060;2023-11-19T06:07:57;12.90;99.90
30379;DHT22;17168;49.164;9.060;2023-11-19T06:10:29;12.90;99.90
30379;DHT22;17168;49.164;9.060;2023-11-19T06:13:03;13.00;99.90
30379;DHT22;17168;49.164;9.060;2023-11-19T06:15:37;13.00;99.90
30379;DHT22;17168;49.164;9.060;2023-11-19T06:18:12;13.00;99.90
30379;DHT22;17168;49.164;9.060;2023-11-19T06:20:44;13.10;99.90
30379;DHT22;17168;49.164;9.060;2023-11-19T06:23:16;13.00;99.90
30379;DHT22;17168;49.164;9.060;2023-11-19T06:25:49;13.10;99.90
30379;DHT22;17168;49.164;9.060;2023-11-19T06:28:21;13.10;99.90
30379;DHT22;17168;49.164;9.060;2023-11-19T06:30:53;13.10;99.90
30379;DHT22;17168;49.164;9.060;2023-11-19T06:33:28;13.10;99.90
30379;DHT22;17168;49.164;9.060;2023-11-19T06:36:00;13.20;99.90
30379;DHT22;17168;49.164;9.060;2023-11-19T06:38:33;13.20;99.90
30379;DHT22;17168;49.164;9.060;2023-11-19T06:41:07;13.20;99.90
30379;DHT22;17168;49.164;9.060;2023-11-19T06:43:40;13.20;99.90
30379;DHT22;17168;49.164;9.060;2023-11-19T06:46:17;13.20;99.90
30379;DHT22;17168;49.164;9.060;2023-11-19T06:48:52;13.30;99.90
30379;DHT22;17168;49.164;9.060;2023-11-19T06:51:24;13.30;99.90
30379;DHT22;17168;49.164;9.060;2023-11-19T06:53:56;13.30;99.90
30379;DHT22;17168;49.164;9.060;2023-11-19T06:56:28;13.40;99.90
30379;DHT22;17168;49.164;9.060;2023-11-19T06:59:01;13.40;99.90
30379;DHT22;17168;49.164;9.060;2023-11-19T07:01:34;13.40;99.90
30379;DHT22;17168;49.164;9.060;2023-11-19T07:04:10;13.40;99.90
30379;DHT22;17168;49.164;9.060;2023-11-19T07:06:43;13.40;99.90
30379;DHT22;17168;49.164;9.060;2023-11-19T07:09:15;13.40;99.90
30379;DHT22;17168;49.164;9.060;2023-11-19T07:11:47;13.50;99.90
30379;DHT22;17168;49.164;9.060;2023-11-19T07:14:20;13.50;99.90
30379;DHT22;17168;49.164;9.060;2023-11-19T07:16:52;13.50;99.90
30379;DHT22;17168;49.164;9.060;2023-11-19T07:19:28;13.50;99.90
30379;DHT22;17168;49.164;9.060;2023-11-19T07:22:00;13.50;99.90
30379;DHT22;17168;49.164;9.060;2023-11-19T07:24:32;13.50;99.90
30379;DHT22;17168;49.164;9.060;2023-11-19T07:27:05;13.50;99.90
30379;DHT22;17168;49.164;9.060;2023-11-19T07:29:37;13.50;99.90
30379;DHT22;17168;49.164;9.060;2023-11-19T07:32:10;13.50;99.90
30379;DHT22;17168;49.164;9.060;2023-11-19T07:34:45;13.60;99.90
30379;DHT22;17168;49.164;9.060;2023-11-19T07:37:17;13.60;99.90
30379;DHT22;17168;49.164;9.060;2023-11-19T07:39:49;13.60;99.90
30379;DHT22;17168;49.164;9.060;2023-11-19T07:42:22;13.60;99.90
30379;DHT22;17168;49.164;9.060;2023-11-19T07:44:55;13.70;99.90
30379;DHT22;17168;49.164;9.060;2023-11-19T07:47:28;13.60;99.90
30379;DHT22;17168;49.164;9.060;2023-11-19T07:50:04;13.60;99.90
30379;DHT22;17168;49.164;9.060;2023-11-19T07:52:37;13.60;99.90
30379;DHT22;17168;49.164;9.060;2023-11-19T07:55:09;13.60;99.90
30379;DHT22;17168;49.164;9.060;2023-11-19T07:57:41;13.60;99.90
30379;DHT22;17168;49.164;9.060;2023-11-19T08:00:14;13.50;99.90
30379;DHT22;17168;49.164;9.060;2023-11-19T08:02:47;13.50;99.90
30379;DHT22;17168;49.164;9.060;2023-11-19T08:05:22;13.40;99.90
30379;DHT22;17168;49.164;9.060;2023-11-19T08:07:56;13.40;99.90
30379;DHT22;17168;49.164;9.060;2023-11-19T08:10:29;13.30;99.90
30379;DHT22;17168;49.164;9.060;2023-11-19T08:13:01;13.30;99.90
30379;DHT22;17168;49.164;9.060;2023-11-19T08:15:33;13.30;99.90
30379;DHT22;17168;49.164;9.060;2023-11-19T08:18:06;13.30;99.90
30379;DHT22;17168;49.164;9.060;2023-11-19T08:20:42;13.30;99.90
30379;DHT22;17168;49.164;9.060;2023-11-19T08:23:16;13.30;99.90
30379;DHT22;17168;49.164;9.060;2023-11-19T08:25:48;13.30;99.90
30379;DHT22;17168;49.164;9.060;2023-11-19T08:28:22;13.30;99.90
30379;DHT22;17168;49.164;9.060;2023-11-19T08:30:54;13.30;99.90
30379;DHT22;17168;49.164;9.060;2023-11-19T08:33:26;13.30;99.90
30379;DHT22;17168;49.164;9.060;2023-11-19T08:36:01;13.40;99.90
30379;DHT22;17168;49.164;9.060;2023-11-19T08:38:36;13.40;99.90
30379;DHT22;17168;49.164;9.060;2023-11-19T08:41:08;13.50;99.90
30379;DHT22;17168;49.164;9.060;2023-11-19T08:43:40;13.40;99.90
30379;DHT22;17168;49.164;9.060;2023-11-19T08:46:13;13.50;99.90
30379;DHT22;17168;49.164;9.060;2023-11-19T08:48:46;13.50;99.90
30379;DHT22;17168;49.164;9.060;2023-11-19T08:51:21;13.50;99.90
30379;DHT22;17168;49.164;9.060;2023-11-19T08:53:53;13.50;99.90
30379;DHT22;17168;49.164;9.060;2023-11-19T08:56:25;13.60;99.90
30379;DHT22;17168;49.164;9.060;2023-11-19T08:58:57;13.50;99.90
30379;DHT22;17168;49.164;9.060;2023-11-19T09:01:30;13.60;99.90
30379;DHT22;17168;49.164;9.060;2023-11-19T09:04:02;13.60;99.90
30379;DHT22;17168;49.164;9.060;2023-11-19T09:06:38;13.60;99.90
30379;DHT22;17168;49.164;9.060;2023-11-19T09:09:11;13.60;99.90
30379;DHT22;17168;49.164;9.060;2023-11-19T09:11:43;13.60;99.90
30379;DHT22;17168;49.164;9.060;2023-11-19T09:14:16;13.70;99.90
30379;DHT22;17168;49.164;9.060;2023-11-19T09:16:48;13.70;99.90
30379;DHT22;17168;49.164;9.060;2023-11-19T09:19:20;13.80;99.90
30379;DHT22;17168;49.164;9.060;2023-11-19T09:21:55;13.80;99.90
30379;DHT22;17168;49.164;9.060;2023-11-19T09:24:27;13.90;99.90
30379;DHT22;17168;49.164;9.060;2023-11-19T09:27:00;13.90;99.90
30379;DHT22;17168;49.164;9.060;2023-11-19T09:29:32;14.00;99.90
30379;DHT22;17168;49.164;9.060;2023-11-19T09:32:06;14.00;99.90
30379;DHT22;17168;49.164;9.060;2023-11-19T09:34:39;14.10;99.90
30379;DHT22;17168;49.164;9.060;2023-11-19T09:37:14;14.10;99.90
30379;DHT22;17168;49.164;9.060;2023-11-19T09:39:50;14.20;99.90
30379;DHT22;17168;49.164;9.060;2023-11-19T09:42:24;14.20;99.90
30379;DHT22;17168;49.164;9.060;2023-11-19T09:44:56;14.20;99.90
30379;DHT22;17168;49.164;9.060;2023-11-19T09:47:30;14.30;99.90
30379;DHT22;17168;49.164;9.060;2023-11-19T09:50:03;14.30;99.90
30379;DHT22;17168;49.164;9.060;2023-11-19T09:52:39;14.30;99.90
30379;DHT22;17168;49.164;9.060;2023-11-19T09:55:12;14.40;99.90
30379;DHT22;17168;49.164;9.060;2023-11-19T09:57:45;14.40;99.90
30379;DHT22;17168;49.164;9.060;2023-11-19T10:00:19;14.40;99.90
30379;DHT22;17168;49.164;9.060;2023-11-19T10:02:54;14.40;99.90
30379;DHT22;17168;49.164;9.060;2023-11-19T10:05:27;14.50;99.90
30379;DHT22;17168;49.164;9.060;2023-11-19T10:08:05;14.50;99.90
30379;DHT22;17168;49.164;9.060;2023-11-19T10:10:39;14.50;99.90
30379;DHT22;17168;49.164;9.060;2023-11-19T10:13:45;14.50;99.90
30379;DHT22;17168;49.164;9.060;2023-11-19T10:16:28;14.60;99.90
30379;DHT22;17168;49.164;9.060;2023-11-19T10:19:29;14.60;99.90
30379;DHT22;17168;49.164;9.060;2023-11-19T10:30:59;14.80;99.90
30379;DHT22;17168;49.164;9.060;2023-11-19T10:33:32;14.80;99.90
30379;DHT22;17168;49.164;9.060;2023-11-19T10:36:05;14.80;99.90
30379;DHT22;17168;49.164;9.060;2023-11-19T10:38:37;14.90;99.90
30379;DHT22;17168;49.164;9.060;2023-11-19T10:41:10;14.90;99.90
30379;DHT22;17168;49.164;9.060;2023-11-19T10:43:45;14.90;99.90
30379;DHT22;17168;49.164;9.060;2023-11-19T10:46:20;14.90;99.90
30379;DHT22;17168;49.164;9.060;2023-11-19T10:48:55;15.00;99.90
30379;DHT22;17168;49.164;9.060;2023-11-19T10:51:29;15.00;99.90
30379;DHT22;17168;49.164;9.060;2023-11-19T10:54:03;15.00;99.90
30379;DHT22;17168;49.164;9.060;2023-11-19T10:56:40;15.00;99.90
30379;DHT22;17168;49.164;9.060;2023-11-19T10:59:14;15.00;99.90
30379;DHT22;17168;49.164;9.060;2023-11-19T11:01:53;15.10;99.90
30379;DHT22;17168;49.164;9.060;2023-11-19T11:04:30;15.10;99.90
30379;DHT22;17168;49.164;9.060;2023-11-19T11:07:06;15.20;99.90
30379;DHT22;17168;49.164;9.060;2023-11-19T11:09:39;15.10;99.90
30379;DHT22;17168;49.164;9.060;2023-11-19T11:12:13;15.20;99.90
30379;DHT22;17168;49.164;9.060;2023-11-19T11:14:46;15.20;99.90
30379;DHT22;17168;49.164;9.060;2023-11-19T11:17:24;15.30;99.90
30379;DHT22;17168;49.164;9.060;2023-11-19T11:20:00;15.30;99.90
30379;DHT22;17168;49.164;9.060;2023-11-19T11:22:44;15.30;99.90
30379;DHT22;17168;49.164;9.060;2023-11-19T11:25:29;15.40;99.90
30379;DHT22;17168;49.164;9.060;2023-11-19T11:28:18;15.50;99.90
30379;DHT22;17168;49.164;9.060;2023-11-19T11:31:08;15.50;99.90
30379;DHT22;17168;49.164;9.060;2023-11-19T11:34:07;15.70;99.90
30379;DHT22;17168;49.164;9.060;2023-11-19T11:36:49;15.80;99.90
30379;DHT22;17168;49.164;9.060;2023-11-19T11:39:29;15.90;99.90
30379;DHT22;17168;49.164;9.060;2023-11-19T11:42:34;16.10;99.90
30379;DHT22;17168;49.164;9.060;2023-11-19T11:45:08;16.20;96.40
30379;DHT22;17168;49.164;9.060;2023-11-19T11:48:06;16.30;95.30
30379;DHT22;17168;49.164;9.060;2023-11-19T11:50:57;16.50;93.60
30379;DHT22;17168;49.164;9.060;2023-11-19T11:53:30;16.70;92.70
30379;DHT22;17168;49.164;9.060;2023-11-19T11:56:03;16.90;92.20
30379;DHT22;17168;49.164;9.060;2023-11-19T11:58:36;17.20;92.50
30379;DHT22;17168;49.164;9.060;2023-11-19T12:01:15;17.40;90.50
30379;DHT22;17168;49.164;9.060;2023-11-19T12:03:52;17.60;90.30
30379;DHT22;17168;49.164;9.060;2023-11-19T12:06:32;17.80;89.20
30379;DHT22;17168;49.164;9.060;2023-11-19T12:09:05;18.00;87.50
30379;DHT22;17168;49.164;9.060;2023-11-19T12:11:47;18.20;85.90
30379;DHT22;17168;49.164;9.060;2023-11-19T12:17:38;18.40;84.60
30379;DHT22;17168;49.164;9.060;2023-11-19T12:20:12;18.60;83.40
30379;DHT22;17168;49.164;9.060;2023-11-19T12:22:48;18.60;82.50
30379;DHT22;17168;49.164;9.060;2023-11-19T12:25:21;18.70;82.80
30379;DHT22;17168;49.164;9.060;2023-11-19T12:27:54;18.70;82.30
30379;DHT22;17168;49.164;9.060;2023-11-19T12:30:27;18.80;81.60
30379;DHT22;17168;49.164;9.060;2023-11-19T12:33:08;18.80;82.00
30379;DHT22;17168;49.164;9.060;2023-11-19T12:35:42;18.90;81.30
30379;DHT22;17168;49.164;9.060;2023-11-19T12:38:24;19.00;81.20
30379;DHT22;17168;49.164;9.060;2023-11-19T12:41:03;19.00;78.90
30379;DHT22;17168;49.164;9.060;2023-11-19T12:43:36;19.10;79.90
30379;DHT22;17168;49.164;9.060;2023-11-19T12:46:19;19.10;77.60
30379;DHT22;17168;49.164;9.060;2023-11-19T12:48:55;19.10;76.80
30379;DHT22;17168;49.164;9.060;2023-11-19T12:51:31;19.00;76.50
30379;DHT22;17168;49.164;9.060;2023-11-19T12:54:07;19.00;76.40
30379;DHT22;17168;49.164;9.060;2023-11-19T12:56:39;19.00;77.00
30379;DHT22;17168;49.164;9.060;2023-11-19T12:59:13;19.00;77.20
30379;DHT22;17168;49.164;9.060;2023-11-19T13:01:54;18.90;76.50
30379;DHT22;17168;49.164;9.060;2023-11-19T13:04:28;18.90;76.80
30379;DHT22;17168;49.164;9.060;2023-11-19T13:07:02;18.90;76.70
30379;DHT22;17168;49.164;9.060;2023-11-19T13:09:40;18.80;76.10
30379;DHT22;17168;49.164;9.060;2023-11-19T13:12:14;18.80;76.60
30379;DHT22;17168;49.164;9.060;2023-11-19T13:14:47;18.90;77.30
30379;DHT22;17168;49.164;9.060;2023-11-19T13:17:20;19.00;77.20
30379;DHT22;17168;49.164;9.060;2023-11-19T13:19:53;19.00;77.20
30379;DHT22;17168;49.164;9.060;2023-11-19T13:22:25;18.90;77.00
30379;DHT22;17168;49.164;9.060;2023-11-19T13:25:00;18.60;76.70
30379;DHT22;17168;49.164;9.060;2023-11-19T13:27:33;18.40;77.00
30379;DHT22;17168;49.164;9.060;2023-11-19T13:30:07;18.00;77.10
30379;DHT22;17168;49.164;9.060;2023-11-19T13:32:57;17.80;78.70
30379;DHT22;17168;49.164;9.060;2023-11-19T13:35:29;17.40;79.50
30379;DHT22;17168;49.164;9.060;2023-11-19T13:38:02;17.20;80.80
30379;DHT22;17168;49.164;9.060;2023-11-19T13:40:37;17.00;81.60
30379;DHT22;17168;49.164;9.060;2023-11-19T13:43:11;16.80;82.60
30379;DHT22;17168;49.164;9.060;2023-11-19T13:45:43;16.60;83.30
30379;DHT22;17168;49.164;9.060;2023-11-19T13:48:16;16.50;83.90
30379;DHT22;17168;49.164;9.060;2023-11-19T13:50:48;16.40;84.50
30379;DHT22;17168;49.164;9.060;2023-11-19T13:53:21;16.30;85.30
30379;DHT22;17168;49.164;9.060;2023-11-19T13:55:56;16.20;85.70
30379;DHT22;17168;49.164;9.060;2023-11-19T13:58:29;16.10;86.20
30379;DHT22;17168;49.164;9.060;2023-11-19T14:01:01;16.00;87.60
30379;DHT22;17168;49.164;9.060;2023-11-19T14:03:34;16.00;88.60
30379;DHT22;17168;49.164;9.060;2023-11-19T14:06:07;16.00;89.00
30379;DHT22;17168;49.164;9.060;2023-11-19T14:08:40;15.90;89.30
30379;DHT22;17168;49.164;9.060;2023-11-19T14:11:15;15.90;89.80
30379;DHT22;17168;49.164;9.060;2023-11-19T14:13:47;15.80;90.10
30379;DHT22;17168;49.164;9.060;2023-11-19T14:16:21;15.80;90.40
30379;DHT22;17168;49.164;9.060;2023-11-19T14:18:53;15.70;90.60
30379;DHT22;17168;49.164;9.060;2023-11-19T14:21:27;15.70;90.90
30379;DHT22;17168;49.164;9.060;2023-11-19T14:23:59;15.70;91.20
30379;DHT22;17168;49.164;9.060;2023-11-19T14:26:34;15.70;91.30
30379;DHT22;17168;49.164;9.060;2023-11-19T14:29:07;15.70;91.70
30379;DHT22;17168;49.164;9.060;2023-11-19T14:31:39;15.80;91.90
30379;DHT22;17168;49.164;9.060;2023-11-19T14:34:12;15.80;91.60
30379;DHT22;17168;49.164;9.060;2023-11-19T14:36:44;15.90;91.00
30379;DHT22;17168;49.164;9.060;2023-11-19T14:39:16;16.00;90.40
30379;DHT22;17168;49.164;9.060;2023-11-19T14:41:51;16.10;88.70
30379;DHT22;17168;49.164;9.060;2023-11-19T14:44:24;16.20;86.00
30379;DHT22;17168;49.164;9.060;2023-11-19T14:46:58;16.20;84.70
30379;DHT22;17168;49.164;9.060;2023-11-19T14:49:31;16.20;83.50
30379;DHT22;17168;49.164;9.060;2023-11-19T14:52:03;16.20;83.70
30379;DHT22;17168;49.164;9.060;2023-11-19T14:54:39;16.20;82.90
30379;DHT22;17168;49.164;9.060;2023-11-19T14:57:14;16.10;82.40
30379;DHT22;17168;49.164;9.060;2023-11-19T14:59:46;16.10;82.40
30379;DHT22;17168;49.164;9.060;2023-11-19T15:02:19;16.00;81.40
30379;DHT22;17168;49.164;9.060;2023-11-19T15:04:53;16.00;80.90
30379;DHT22;17168;49.164;9.060;2023-11-19T15:07:28;15.90;80.70
30379;DHT22;17168;49.164;9.060;2023-11-19T15:10:00;15.90;81.30
30379;DHT22;17168;49.164;9.060;2023-11-19T15:12:36;15.80;81.20
30379;DHT22;17168;49.164;9.060;2023-11-19T15:15:11;15.70;81.20
30379;DHT22;17168;49.164;9.060;2023-11-19T15:17:46;15.60;81.60
30379;DHT22;17168;49.164;9.060;2023-11-19T15:20:18;15.60;81.90
30379;DHT22;17168;49.164;9.060;2023-11-19T15:23:21;15.60;82.10
30379;DHT22;17168;49.164;9.060;2023-11-19T15:29:43;15.40;82.30
30379;DHT22;17168;49.164;9.060;2023-11-19T15:32:16;15.40;82.60
30379;DHT22;17168;49.164;9.060;2023-11-19T15:34:48;15.30;83.30
30379;DHT22;17168;49.164;9.060;2023-11-19T15:37:20;15.30;83.70
30379;DHT22;17168;49.164;9.060;2023-11-19T15:39:53;15.30;83.90
30379;DHT22;17168;49.164;9.060;2023-11-19T15:42:25;15.20;83.90
30379;DHT22;17168;49.164;9.060;2023-11-19T15:45:00;15.20;84.10
30379;DHT22;17168;49.164;9.060;2023-11-19T15:47:32;15.10;84.60
30379;DHT22;17168;49.164;9.060;2023-11-19T15:50:06;15.10;85.00
30379;DHT22;17168;49.164;9.060;2023-11-19T15:58:31;14.90;85.70
30379;DHT22;17168;49.164;9.060;2023-11-19T16:01:21;14.90;86.10
30379;DHT22;17168;49.164;9.060;2023-11-19T16:03:53;14.90;86.40
30379;DHT22;17168;49.164;9.060;2023-11-19T16:06:27;14.80;86.60
30379;DHT22;17168;49.164;9.060;2023-11-19T16:08:59;14.80;87.00
30379;DHT22;17168;49.164;9.060;2023-11-19T16:11:35;14.80;87.40
30379;DHT22;17168;49.164;9.060;2023-11-19T16:14:25;14.70;87.30
30379;DHT22;17168;49.164;9.060;2023-11-19T16:17:02;14.70;87.50
30379;DHT22;17168;49.164;9.060;2023-11-19T16:19:35;14.70;87.70
30379;DHT22;17168;49.164;9.060;2023-11-19T16:22:08;14.70;88.00
30379;DHT22;17168;49.164;9.060;2023-11-19T16:24:43;14.60;88.20
30379;DHT22;17168;49.164;9.060;2023-11-19T16:27:16;14.60;88.10
30379;DHT22;17168;49.164;9.060;2023-11-19T16:29:51;14.60;88.30
30379;DHT22;17168;49.164;9.060;2023-11-19T16:47:35;14.60;89.60
30379;DHT22;17168;49.164;9.060;2023-11-19T17:02:56;14.40;90.30
30379;DHT22;17168;49.164;9.060;2023-11-19T17:34:54;14.40;90.90
30379;DHT22;17168;49.164;9.060;2023-11-19T17:37:52;14.40;90.90